Time;durP1;ratioP1;P1;durP2;ratioP2;P2;SDS_P1;SDS_P2;PMS_P1;PMS_P2;Temp;Humidity;BMP_temperature;BMP_pressure;BME280_temperature;BME280_humidity;BME280_pressure;Samples;Min_cycle;Max_cycle;Signal;HPM_P1;HPM_P2
2022/04/07 00:00:33;;;;;;;;;;;7.90;99.90;;;;;;5072557;28;19961;-78
2022/04/07 00:02:59;;;;;;;;;;;7.90;99.90;;;;;;5084557;28;19925;-79
2022/04/07 00:05:24;;;;;;;;;;;7.90;99.90;;;;;;5072730;28;19959;-77
2022/04/07 00:07:50;;;;;;;;;;;7.90;99.90;;;;;;5074395;28;19912;-78
2022/04/07 00:10:15;;;;;;;;;;;7.90;99.90;;;;;;5080632;28;19947;-79
2022/04/07 00:12:42;;;;;;;;;;;7.80;99.90;;;;;;5073291;28;20353;-78
2022/04/07 00:15:08;;;;;;;;;;;7.80;99.90;;;;;;5074219;28;19919;-79
2022/04/07 00:17:34;;;;;;;;;;;7.80;99.90;;;;;;5073059;28;19924;-78
2022/04/07 00:19:59;;;;;;;;;;;7.80;99.90;;;;;;5073864;28;19909;-78
2022/04/07 00:22:25;;;;;;;;;;;7.80;99.90;;;;;;5072017;28;19908;-78
2022/04/07 00:24:50;;;;;;;;;;;7.80;99.90;;;;;;5072336;28;19916;-79
2022/04/07 00:27:16;;;;;;;;;;;7.70;99.90;;;;;;5073862;28;19912;-78
2022/04/07 00:29:42;;;;;;;;;;;7.80;99.90;;;;;;5073215;28;19909;-79
2022/04/07 00:32:08;;;;;;;;;;;7.70;99.90;;;;;;5072387;28;19963;-78
2022/04/07 00:34:33;;;;;;;;;;;7.80;99.90;;;;;;5073195;28;20246;-78
2022/04/07 00:36:59;;;;;;;;;;;7.70;99.90;;;;;;5073495;28;19943;-78
2022/04/07 00:39:24;;;;;;;;;;;7.80;99.90;;;;;;5073056;28;19923;-76
2022/04/07 00:41:50;;;;;;;;;;;7.70;99.90;;;;;;5073227;28;19909;-77
2022/04/07 00:44:16;;;;;;;;;;;7.70;99.90;;;;;;5073618;28;20349;-77
2022/04/07 00:46:42;;;;;;;;;;;7.70;99.90;;;;;;5072267;28;19908;-76
2022/04/07 00:49:08;;;;;;;;;;;7.70;99.90;;;;;;5073070;28;20019;-77
2022/04/07 00:51:35;;;;;;;;;;;7.70;99.90;;;;;;5072847;28;19951;-76
2022/04/07 00:54:01;;;;;;;;;;;7.70;99.90;;;;;;5072670;28;20003;-77
2022/04/07 00:56:26;;;;;;;;;;;7.70;99.90;;;;;;5077231;28;20005;-76
2022/04/07 00:58:53;;;;;;;;;;;7.70;99.90;;;;;;5074636;28;19908;-77
2022/04/07 01:01:23;;;;;;;;;;;7.70;99.90;;;;;;5072810;28;19920;-76
2022/04/07 01:03:51;;;;;;;;;;;7.70;99.90;;;;;;5072668;28;20043;-77
2022/04/07 01:06:19;;;;;;;;;;;7.70;99.90;;;;;;5073325;28;19916;-77
2022/04/07 01:08:45;;;;;;;;;;;7.70;99.90;;;;;;5104802;28;19909;-77
2022/04/07 01:11:12;;;;;;;;;;;7.70;99.90;;;;;;5073307;28;20349;-77
2022/04/07 01:13:47;;;;;;;;;;;7.70;99.90;;;;;;5072389;28;19974;-77
2022/04/07 01:16:13;;;;;;;;;;;7.70;99.90;;;;;;5073121;28;19909;-77
2022/04/07 01:18:39;;;;;;;;;;;7.70;99.90;;;;;;5078741;28;19920;-77
2022/04/07 01:21:06;;;;;;;;;;;7.70;99.90;;;;;;5080697;28;19908;-77
2022/04/07 01:23:34;;;;;;;;;;;7.70;99.90;;;;;;5072431;28;20402;-77
2022/04/07 01:26:01;;;;;;;;;;;7.70;99.90;;;;;;5072854;28;19909;-77
2022/04/07 01:28:27;;;;;;;;;;;7.70;99.90;;;;;;5072916;28;19909;-77
2022/04/07 01:30:52;;;;;;;;;;;7.70;99.90;;;;;;5072410;28;19920;-77
2022/04/07 01:33:18;;;;;;;;;;;7.70;99.90;;;;;;5105484;28;20136;-77
2022/04/07 01:35:44;;;;;;;;;;;7.70;99.90;;;;;;5072253;28;19909;-76
2022/04/07 01:38:10;;;;;;;;;;;7.70;99.90;;;;;;5071552;28;19915;-78
2022/04/07 01:40:36;;;;;;;;;;;7.70;99.90;;;;;;5072794;28;19908;-77
2022/04/07 01:43:05;;;;;;;;;;;7.70;99.90;;;;;;5079892;28;19916;-77
2022/04/07 01:45:33;;;;;;;;;;;7.70;99.90;;;;;;5073468;28;19916;-78
2022/04/07 01:47:59;;;;;;;;;;;7.70;99.90;;;;;;5076074;28;19995;-78
2022/04/07 01:50:25;;;;;;;;;;;7.70;99.90;;;;;;5092499;28;19908;-78
2022/04/07 01:52:51;;;;;;;;;;;7.70;99.90;;;;;;5091018;28;19995;-78
2022/04/07 01:55:17;;;;;;;;;;;7.70;99.90;;;;;;5092667;28;19946;-78
2022/04/07 01:57:44;;;;;;;;;;;7.70;99.90;;;;;;5092186;28;19908;-78
2022/04/07 02:00:09;;;;;;;;;;;7.60;99.90;;;;;;5091424;28;20367;-78
2022/04/07 02:02:35;;;;;;;;;;;7.70;99.90;;;;;;5092271;28;19924;-78
2022/04/07 02:05:08;;;;;;;;;;;7.70;99.90;;;;;;5092810;28;19908;-78
2022/04/07 02:07:36;;;;;;;;;;;7.70;99.90;;;;;;5091494;28;20289;-78
2022/04/07 02:10:03;;;;;;;;;;;7.70;99.90;;;;;;5092027;28;19908;-78
2022/04/07 02:12:29;;;;;;;;;;;7.60;99.90;;;;;;5096068;28;20147;-78
2022/04/07 02:14:59;;;;;;;;;;;7.60;99.90;;;;;;5095901;28;19912;-78
2022/04/07 02:17:25;;;;;;;;;;;7.60;99.90;;;;;;5096268;28;20010;-78
2022/04/07 02:19:51;;;;;;;;;;;7.60;99.90;;;;;;5095540;28;19963;-78
2022/04/07 02:22:17;;;;;;;;;;;7.60;99.90;;;;;;5096466;28;19912;-78
2022/04/07 02:24:43;;;;;;;;;;;7.60;99.90;;;;;;5096137;28;20430;-78
2022/04/07 02:27:09;;;;;;;;;;;7.60;99.90;;;;;;5098771;28;19912;-77
2022/04/07 02:29:34;;;;;;;;;;;7.60;99.90;;;;;;5100066;28;20105;-77
2022/04/07 02:32:00;;;;;;;;;;;7.60;99.90;;;;;;5129155;27;20282;-78
2022/04/07 02:34:26;;;;;;;;;;;7.60;99.90;;;;;;5096349;28;19919;-78
2022/04/07 02:36:51;;;;;;;;;;;7.60;99.90;;;;;;5101608;28;19914;-79
2022/04/07 02:39:17;;;;;;;;;;;7.50;99.90;;;;;;5099577;28;20003;-78
2022/04/07 02:41:42;;;;;;;;;;;7.50;99.90;;;;;;5095467;28;19908;-78
2022/04/07 02:44:08;;;;;;;;;;;7.50;99.90;;;;;;5094857;28;19912;-78
2022/04/07 02:46:34;;;;;;;;;;;7.40;99.90;;;;;;5095991;28;19908;-78
2022/04/07 02:48:59;;;;;;;;;;;7.40;99.90;;;;;;5095758;28;19908;-78
2022/04/07 02:51:26;;;;;;;;;;;7.40;99.90;;;;;;5095900;28;19919;-78
2022/04/07 02:53:57;;;;;;;;;;;7.30;99.90;;;;;;5095480;28;19912;-78
2022/04/07 02:56:23;;;;;;;;;;;7.30;99.90;;;;;;5096045;28;19908;-78
2022/04/07 02:58:49;;;;;;;;;;;7.30;99.90;;;;;;5095138;28;19912;-77
2022/04/07 03:01:15;;;;;;;;;;;7.20;99.90;;;;;;5095563;28;20278;-77
2022/04/07 03:03:41;;;;;;;;;;;7.30;99.90;;;;;;5094852;28;20353;-77
2022/04/07 03:06:06;;;;;;;;;;;7.20;99.90;;;;;;5095436;28;20058;-78
2022/04/07 03:08:35;;;;;;;;;;;7.20;99.90;;;;;;5095649;28;19908;-78
2022/04/07 03:11:01;;;;;;;;;;;7.20;99.90;;;;;;5094514;28;20390;-77
2022/04/07 03:13:27;;;;;;;;;;;7.20;99.90;;;;;;5099840;28;19912;-78
2022/04/07 03:15:53;;;;;;;;;;;7.20;99.90;;;;;;5097985;28;19908;-77
2022/04/07 03:18:19;;;;;;;;;;;7.30;99.90;;;;;;5095481;28;19912;-78
2022/04/07 03:20:44;;;;;;;;;;;7.20;99.90;;;;;;5094961;28;20014;-77
2022/04/07 03:23:10;;;;;;;;;;;7.20;99.90;;;;;;5094117;28;19916;-78
2022/04/07 03:25:36;;;;;;;;;;;7.20;99.90;;;;;;5095128;28;20010;-78
2022/04/07 03:28:06;;;;;;;;;;;7.10;99.90;;;;;;5095344;28;20266;-78
2022/04/07 03:30:31;;;;;;;;;;;7.10;99.90;;;;;;5095121;28;20010;-78
2022/04/07 03:32:57;;;;;;;;;;;7.10;99.90;;;;;;5094415;28;19987;-78
2022/04/07 03:35:23;;;;;;;;;;;7.10;99.90;;;;;;5093788;28;19909;-78
2022/04/07 03:37:48;;;;;;;;;;;7.00;99.90;;;;;;5094612;28;19912;-78
2022/04/07 03:40:14;;;;;;;;;;;7.00;99.90;;;;;;5094658;28;20375;-78
2022/04/07 03:42:39;;;;;;;;;;;7.00;99.90;;;;;;5093108;28;19909;-78
2022/04/07 03:45:05;;;;;;;;;;;7.00;99.90;;;;;;5094503;28;19908;-78
2022/04/07 03:47:31;;;;;;;;;;;7.00;99.90;;;;;;5094806;28;19914;-78
2022/04/07 03:49:57;;;;;;;;;;;6.90;99.90;;;;;;5094332;28;20717;-78
2022/04/07 03:52:22;;;;;;;;;;;6.80;99.90;;;;;;5094783;28;19919;-78
2022/04/07 03:54:48;;;;;;;;;;;6.80;99.90;;;;;;5109549;28;19988;-77
2022/04/07 03:57:14;;;;;;;;;;;6.80;99.90;;;;;;5095892;28;19908;-79
2022/04/07 03:59:42;;;;;;;;;;;6.80;99.90;;;;;;5100532;28;19912;-78
2022/04/07 04:02:08;;;;;;;;;;;6.80;99.90;;;;;;5095716;28;19998;-78
2022/04/07 04:04:33;;;;;;;;;;;6.80;99.90;;;;;;5094505;28;19947;-78
2022/04/07 04:06:59;;;;;;;;;;;6.80;99.90;;;;;;5092631;28;19908;-78
2022/04/07 04:09:25;;;;;;;;;;;6.80;99.90;;;;;;5094226;28;19908;-78
2022/04/07 04:11:52;;;;;;;;;;;6.80;99.90;;;;;;5093367;28;19919;-78
2022/04/07 04:14:18;;;;;;;;;;;6.90;99.90;;;;;;5094232;28;20020;-78
2022/04/07 04:16:43;;;;;;;;;;;6.80;99.90;;;;;;5093469;28;20000;-77
2022/04/07 04:19:09;;;;;;;;;;;6.90;99.90;;;;;;5094217;28;19927;-78
2022/04/07 04:21:34;;;;;;;;;;;6.90;99.90;;;;;;5093832;28;19912;-78
2022/04/07 04:24:00;;;;;;;;;;;6.90;99.90;;;;;;5093158;28;19908;-78
2022/04/07 04:26:26;;;;;;;;;;;6.90;99.90;;;;;;5094233;28;19908;-78
2022/04/07 04:28:52;;;;;;;;;;;7.00;99.90;;;;;;5093537;28;19920;-77
2022/04/07 04:31:18;;;;;;;;;;;7.00;99.90;;;;;;5093745;28;19919;-78
2022/04/07 04:33:44;;;;;;;;;;;7.00;99.90;;;;;;5092853;28;20001;-77
2022/04/07 04:36:10;;;;;;;;;;;7.00;99.90;;;;;;5094196;28;20380;-78
2022/04/07 04:38:35;;;;;;;;;;;7.10;99.90;;;;;;5093627;28;19931;-78
2022/04/07 04:41:02;;;;;;;;;;;7.10;99.90;;;;;;5093237;28;20497;-77
2022/04/07 04:43:27;;;;;;;;;;;7.20;99.90;;;;;;5096121;28;19915;-78
2022/04/07 04:45:53;;;;;;;;;;;7.20;99.90;;;;;;5098702;28;19908;-77
2022/04/07 04:48:18;;;;;;;;;;;7.20;99.90;;;;;;5093817;28;19912;-77
2022/04/07 04:50:44;;;;;;;;;;;7.20;99.90;;;;;;5093503;28;19915;-77
2022/04/07 04:53:09;;;;;;;;;;;7.20;99.90;;;;;;5093324;28;19912;-78
2022/04/07 04:55:35;;;;;;;;;;;7.20;99.90;;;;;;5093499;28;19908;-78
2022/04/07 04:58:00;;;;;;;;;;;7.20;99.90;;;;;;5092665;28;19908;-78
2022/04/07 05:00:26;;;;;;;;;;;7.20;99.90;;;;;;5093721;28;19908;-78
2022/04/07 05:02:52;;;;;;;;;;;7.20;99.90;;;;;;5093046;28;20403;-78
2022/04/07 05:05:17;;;;;;;;;;;7.20;99.90;;;;;;5093544;28;20021;-78
2022/04/07 05:07:43;;;;;;;;;;;7.10;99.90;;;;;;5092112;28;20404;-78
2022/04/07 05:10:09;;;;;;;;;;;7.10;99.90;;;;;;5093002;28;20356;-79
2022/04/07 05:12:35;;;;;;;;;;;7.10;99.90;;;;;;5099167;28;19934;-78
2022/04/07 05:15:01;;;;;;;;;;;7.10;99.90;;;;;;5092989;28;19966;-78
2022/04/07 05:17:26;;;;;;;;;;;7.10;99.90;;;;;;5093223;28;19908;-78
2022/04/07 05:19:52;;;;;;;;;;;7.20;99.90;;;;;;5091491;28;19940;-78
2022/04/07 05:22:18;;;;;;;;;;;7.20;99.90;;;;;;5093436;28;19939;-78
2022/04/07 05:24:44;;;;;;;;;;;7.20;99.90;;;;;;5093296;28;19908;-78
2022/04/07 05:27:09;;;;;;;;;;;7.20;99.90;;;;;;5092928;28;19915;-78
2022/04/07 05:29:35;;;;;;;;;;;7.20;99.90;;;;;;5098075;28;19969;-78
2022/04/07 05:32:00;;;;;;;;;;;7.20;99.90;;;;;;5094295;28;19912;-78
2022/04/07 05:34:26;;;;;;;;;;;7.30;99.90;;;;;;5093062;28;20361;-78
2022/04/07 05:36:52;;;;;;;;;;;7.30;99.90;;;;;;5092144;28;20326;-77
2022/04/07 05:39:17;;;;;;;;;;;7.30;99.90;;;;;;5092483;28;20448;-78
2022/04/07 05:41:43;;;;;;;;;;;7.30;99.90;;;;;;5092629;28;19915;-78
2022/04/07 05:44:09;;;;;;;;;;;7.30;99.90;;;;;;5090709;28;19916;-77
2022/04/07 05:46:34;;;;;;;;;;;7.30;99.90;;;;;;5095638;28;19909;-78
2022/04/07 05:49:00;;;;;;;;;;;7.30;99.90;;;;;;5095293;28;19915;-78
2022/04/07 05:51:25;;;;;;;;;;;7.30;99.90;;;;;;5097048;28;19912;-78
2022/04/07 05:53:51;;;;;;;;;;;7.30;99.90;;;;;;5096152;28;19999;-78
2022/04/07 05:56:16;;;;;;;;;;;7.30;99.90;;;;;;5096948;28;20339;-76
2022/04/07 05:58:42;;;;;;;;;;;7.30;99.90;;;;;;5096969;28;19908;-78
2022/04/07 06:01:07;;;;;;;;;;;7.30;99.90;;;;;;5096024;28;19904;-79
2022/04/07 06:03:33;;;;;;;;;;;7.30;99.90;;;;;;5095581;28;19915;-79
2022/04/07 06:05:58;;;;;;;;;;;7.30;99.90;;;;;;5095953;28;20460;-78
2022/04/07 06:08:24;;;;;;;;;;;7.30;99.90;;;;;;5096587;28;20003;-79
2022/04/07 06:10:50;;;;;;;;;;;7.30;99.90;;;;;;5095909;28;19908;-78
2022/04/07 06:13:15;;;;;;;;;;;7.30;99.90;;;;;;5097893;28;20008;-79
2022/04/07 06:15:41;;;;;;;;;;;7.30;99.90;;;;;;5101343;28;19923;-79
2022/04/07 06:18:07;;;;;;;;;;;7.20;99.90;;;;;;5095969;28;20482;-78
2022/04/07 06:20:33;;;;;;;;;;;7.30;99.90;;;;;;5096522;28;20006;-79
2022/04/07 06:23:00;;;;;;;;;;;7.20;99.90;;;;;;5095676;28;20368;-78
2022/04/07 06:25:26;;;;;;;;;;;7.20;99.90;;;;;;5096012;28;20383;-78
2022/04/07 06:27:51;;;;;;;;;;;7.20;99.90;;;;;;5096186;28;19987;-78
2022/04/07 06:30:18;;;;;;;;;;;7.20;99.90;;;;;;5096890;28;20369;-79
2022/04/07 06:32:44;;;;;;;;;;;7.20;99.90;;;;;;5096008;28;19916;-79
2022/04/07 06:35:11;;;;;;;;;;;7.30;99.90;;;;;;5095507;28;19912;-78
2022/04/07 06:37:46;;;;;;;;;;;7.30;99.90;;;;;;5095937;28;19931;-79
2022/04/07 06:40:12;;;;;;;;;;;7.30;99.90;;;;;;5095447;28;19904;-78
2022/04/07 06:42:37;;;;;;;;;;;7.40;99.90;;;;;;5095687;28;19915;-78
2022/04/07 06:45:04;;;;;;;;;;;7.50;99.90;;;;;;5095396;28;19908;-79
2022/04/07 06:47:35;;;;;;;;;;;7.60;99.90;;;;;;5094213;28;19912;-78
2022/04/07 06:50:01;;;;;;;;;;;7.60;99.90;;;;;;5094987;28;19908;-78
2022/04/07 06:52:26;;;;;;;;;;;7.60;99.90;;;;;;5095262;28;19919;-78
2022/04/07 06:54:52;;;;;;;;;;;7.60;99.90;;;;;;5095641;28;19912;-78
2022/04/07 06:57:18;;;;;;;;;;;7.60;99.90;;;;;;5096915;28;20380;-79
2022/04/07 06:59:43;;;;;;;;;;;7.60;99.90;;;;;;5103700;28;19953;-78
2022/04/07 07:02:09;;;;;;;;;;;7.60;99.90;;;;;;5095997;28;20010;-77
2022/04/07 07:04:35;;;;;;;;;;;7.60;99.90;;;;;;5095552;28;20346;-77
2022/04/07 07:07:00;;;;;;;;;;;7.50;99.90;;;;;;5094732;28;20430;-78
2022/04/07 07:09:26;;;;;;;;;;;7.50;99.90;;;;;;5095219;28;19908;-79
2022/04/07 07:11:51;;;;;;;;;;;7.60;99.90;;;;;;5095618;28;20284;-77
2022/04/07 07:14:17;;;;;;;;;;;7.50;99.90;;;;;;5094520;28;19961;-79
2022/04/07 07:16:43;;;;;;;;;;;7.50;99.90;;;;;;5095509;28;19912;-78
2022/04/07 07:19:10;;;;;;;;;;;7.50;99.90;;;;;;5094651;28;19965;-78
2022/04/07 07:21:36;;;;;;;;;;;7.50;99.90;;;;;;5093760;28;19915;-78
2022/04/07 07:24:01;;;;;;;;;;;7.50;99.90;;;;;;5094026;28;20308;-77
2022/04/07 07:26:27;;;;;;;;;;;7.60;99.90;;;;;;5094602;28;19961;-78
2022/04/07 07:28:52;;;;;;;;;;;7.60;99.90;;;;;;5094541;28;19908;-77
2022/04/07 07:31:18;;;;;;;;;;;7.80;99.90;;;;;;5094612;28;19923;-78
2022/04/07 07:33:44;;;;;;;;;;;7.90;99.90;;;;;;5094974;28;19916;-77
2022/04/07 07:36:09;;;;;;;;;;;8.00;99.90;;;;;;5094009;28;19908;-77
2022/04/07 07:38:35;;;;;;;;;;;8.00;99.90;;;;;;5095019;28;20463;-77
2022/04/07 07:41:01;;;;;;;;;;;8.00;99.90;;;;;;5092781;28;19911;-77
2022/04/07 07:43:26;;;;;;;;;;;8.10;99.90;;;;;;5096488;28;19908;-78
2022/04/07 07:45:52;;;;;;;;;;;8.20;99.90;;;;;;5096574;28;19908;-77
2022/04/07 07:48:20;;;;;;;;;;;8.30;99.90;;;;;;5099499;28;19978;-77
2022/04/07 07:50:46;;;;;;;;;;;8.40;99.90;;;;;;5097246;28;19961;-77
2022/04/07 07:53:14;;;;;;;;;;;8.50;99.90;;;;;;5093550;28;19912;-77
2022/04/07 07:55:40;;;;;;;;;;;8.40;99.90;;;;;;5094649;28;19915;-78
2022/04/07 07:58:05;;;;;;;;;;;8.40;99.90;;;;;;5093521;28;20006;-78
2022/04/07 08:00:31;;;;;;;;;;;8.30;99.90;;;;;;5094282;28;19999;-77
2022/04/07 08:02:56;;;;;;;;;;;8.40;99.90;;;;;;5094039;28;20006;-77
2022/04/07 08:05:22;;;;;;;;;;;8.50;99.90;;;;;;5093932;28;20365;-77
2022/04/07 08:07:48;;;;;;;;;;;8.50;99.90;;;;;;5096691;28;19930;-76
2022/04/07 08:10:13;;;;;;;;;;;8.50;99.90;;;;;;5091108;28;19908;-77
2022/04/07 08:12:40;;;;;;;;;;;8.60;99.90;;;;;;5093931;28;19916;-77
2022/04/07 08:15:05;;;;;;;;;;;8.60;99.90;;;;;;5092938;28;19994;-76
2022/04/07 08:17:31;;;;;;;;;;;8.60;99.90;;;;;;5094168;28;19996;-77
2022/04/07 08:19:57;;;;;;;;;;;8.60;99.90;;;;;;5093543;28;19908;-77
2022/04/07 08:22:22;;;;;;;;;;;8.70;99.90;;;;;;5092090;28;19961;-77
2022/04/07 08:24:48;;;;;;;;;;;8.80;99.90;;;;;;5094030;28;19915;-77
2022/04/07 08:27:14;;;;;;;;;;;8.80;99.90;;;;;;5093529;28;19908;-76
2022/04/07 08:29:40;;;;;;;;;;;8.80;99.90;;;;;;5093732;28;20365;-77
2022/04/07 08:32:06;;;;;;;;;;;8.70;99.90;;;;;;5092492;28;19919;-76
2022/04/07 08:34:32;;;;;;;;;;;8.70;99.90;;;;;;5093470;28;20315;-77
2022/04/07 08:36:57;;;;;;;;;;;8.70;99.90;;;;;;5093921;28;19908;-77
2022/04/07 08:39:23;;;;;;;;;;;8.70;99.90;;;;;;5093109;28;19943;-77
2022/04/07 08:41:48;;;;;;;;;;;8.70;99.90;;;;;;5093664;28;19919;-77
2022/04/07 08:44:17;;;;;;;;;;;8.70;99.90;;;;;;5093416;28;20397;-77
2022/04/07 08:46:51;;;;;;;;;;;8.70;99.90;;;;;;5093188;28;19995;-77
2022/04/07 08:49:19;;;;;;;;;;;8.80;99.90;;;;;;5092450;28;20390;-76
2022/04/07 08:51:46;;;;;;;;;;;8.90;99.90;;;;;;5093076;28;19912;-77
2022/04/07 08:54:12;;;;;;;;;;;8.90;99.90;;;;;;5092615;28;19918;-77
2022/04/07 08:56:38;;;;;;;;;;;8.80;99.90;;;;;;5091503;28;20357;-77
2022/04/07 08:59:04;;;;;;;;;;;9.00;99.90;;;;;;5092047;28;19961;-77
2022/04/07 09:01:29;;;;;;;;;;;9.00;99.90;;;;;;5092297;28;19928;-77
2022/04/07 09:03:55;;;;;;;;;;;9.10;99.90;;;;;;5091766;28;20007;-77
2022/04/07 09:06:21;;;;;;;;;;;9.10;99.90;;;;;;5092294;28;19911;-77
2022/04/07 09:08:47;;;;;;;;;;;9.20;99.90;;;;;;5091447;28;19915;-77
2022/04/07 09:11:13;;;;;;;;;;;9.20;99.90;;;;;;5092027;28;19912;-77
2022/04/07 09:13:40;;;;;;;;;;;9.10;99.90;;;;;;5092965;28;19934;-77
2022/04/07 09:16:12;;;;;;;;;;;9.00;99.90;;;;;;5091970;28;19908;-77
2022/04/07 09:18:38;;;;;;;;;;;9.00;99.90;;;;;;5092574;28;19914;-76
2022/04/07 09:21:04;;;;;;;;;;;9.20;99.90;;;;;;5090605;28;20357;-77
2022/04/07 09:23:36;;;;;;;;;;;9.30;99.90;;;;;;5092461;28;19916;-77
2022/04/07 09:26:02;;;;;;;;;;;9.20;99.90;;;;;;5091690;28;20037;-76
2022/04/07 09:28:31;;;;;;;;;;;9.30;99.90;;;;;;5092426;28;19921;-77
2022/04/07 09:30:57;;;;;;;;;;;9.30;99.90;;;;;;5092292;28;19908;-77
2022/04/07 09:33:25;;;;;;;;;;;9.30;99.90;;;;;;5091564;28;19912;-77
2022/04/07 09:36:00;;;;;;;;;;;9.40;99.90;;;;;;5092159;28;20353;-78
2022/04/07 09:38:27;;;;;;;;;;;9.60;99.90;;;;;;5092029;28;19943;-77
2022/04/07 09:40:53;;;;;;;;;;;9.60;99.90;;;;;;5092007;28;20288;-77
2022/04/07 09:43:20;;;;;;;;;;;9.60;99.90;;;;;;5091725;28;19970;-75
2022/04/07 09:45:45;;;;;;;;;;;9.80;99.90;;;;;;5092036;28;20318;-75
2022/04/07 09:48:18;;;;;;;;;;;9.90;99.90;;;;;;5090408;28;19913;-75
2022/04/07 09:51:00;;;;;;;;;;;10.00;99.90;;;;;;5090705;28;19915;-76
2022/04/07 09:53:28;;;;;;;;;;;10.00;99.90;;;;;;5090425;28;19916;-76
2022/04/07 09:55:54;;;;;;;;;;;10.10;99.90;;;;;;5092101;28;19961;-76
2022/04/07 09:58:20;;;;;;;;;;;10.10;99.90;;;;;;5091573;28;20298;-76
2022/04/07 10:00:46;;;;;;;;;;;9.90;99.90;;;;;;5091800;28;19908;-76
2022/04/07 10:03:13;;;;;;;;;;;9.80;99.90;;;;;;5091675;28;19928;-76
2022/04/07 10:05:39;;;;;;;;;;;9.90;99.90;;;;;;5090907;28;19912;-76
2022/04/07 10:08:06;;;;;;;;;;;9.90;99.90;;;;;;5091209;28;19908;-76
2022/04/07 10:10:31;;;;;;;;;;;9.90;99.90;;;;;;5092293;28;19916;-76
2022/04/07 10:12:59;;;;;;;;;;;10.00;99.90;;;;;;5091931;28;19912;-77
2022/04/07 10:15:25;;;;;;;;;;;10.10;99.90;;;;;;5091474;28;20361;-76
2022/04/07 10:17:50;;;;;;;;;;;10.20;99.90;;;;;;5092272;28;19961;-76
2022/04/07 10:20:17;;;;;;;;;;;10.00;99.90;;;;;;5091553;28;20320;-76
2022/04/07 10:22:52;;;;;;;;;;;10.00;99.90;;;;;;5091718;28;19908;-77
2022/04/07 10:25:18;;;;;;;;;;;9.90;99.90;;;;;;5091037;28;19995;-76
2022/04/07 10:27:45;;;;;;;;;;;9.80;99.90;;;;;;5091777;28;19908;-76
2022/04/07 10:30:12;;;;;;;;;;;9.70;99.90;;;;;;5090799;28;19908;-76
2022/04/07 10:32:41;;;;;;;;;;;9.70;99.90;;;;;;5094184;28;19912;-77
2022/04/07 10:35:08;;;;;;;;;;;9.60;99.90;;;;;;5095171;28;19915;-76
2022/04/07 10:37:44;;;;;;;;;;;9.60;99.90;;;;;;5094426;28;19908;-76
2022/04/07 10:40:28;;;;;;;;;;;9.80;99.90;;;;;;5095673;28;19909;-76
2022/04/07 10:43:13;;;;;;;;;;;10.00;99.90;;;;;;5095720;28;20003;-77
2022/04/07 10:45:39;;;;;;;;;;;10.20;99.90;;;;;;5095734;28;19916;-76
2022/04/07 10:48:27;;;;;;;;;;;10.30;99.90;;;;;;5096711;28;19908;-76
2022/04/07 10:51:11;;;;;;;;;;;10.10;99.90;;;;;;5095709;28;19908;-77
2022/04/07 10:53:38;;;;;;;;;;;10.10;99.90;;;;;;5096024;28;19912;-77
2022/04/07 10:56:08;;;;;;;;;;;10.00;99.90;;;;;;5095895;28;19954;-76
2022/04/07 10:58:39;;;;;;;;;;;9.90;99.90;;;;;;5095428;28;20365;-76
2022/04/07 11:01:05;;;;;;;;;;;9.90;99.90;;;;;;5095411;28;19957;-76
2022/04/07 11:03:31;;;;;;;;;;;9.80;99.90;;;;;;5095077;28;19927;-76
2022/04/07 11:06:06;;;;;;;;;;;9.80;99.90;;;;;;5095554;28;19936;-76
2022/04/07 11:08:32;;;;;;;;;;;10.00;99.90;;;;;;5095722;28;20369;-76
2022/04/07 11:10:58;;;;;;;;;;;10.20;99.90;;;;;;5095244;28;19908;-77
2022/04/07 11:13:43;;;;;;;;;;;10.40;99.90;;;;;;5093625;28;19919;-77
2022/04/07 11:16:28;;;;;;;;;;;10.50;99.90;;;;;;5094623;28;19908;-77
2022/04/07 11:19:17;;;;;;;;;;;10.70;99.90;;;;;;5094059;28;19931;-77
2022/04/07 11:21:52;;;;;;;;;;;10.80;99.90;;;;;;5095583;28;19908;-77
2022/04/07 11:24:23;;;;;;;;;;;10.70;99.90;;;;;;5094614;28;20373;-77
2022/04/07 11:26:49;;;;;;;;;;;10.50;99.90;;;;;;5095229;28;19961;-77
2022/04/07 11:29:29;;;;;;;;;;;10.60;99.90;;;;;;5094625;28;19912;-77
2022/04/07 11:32:05;;;;;;;;;;;10.60;99.90;;;;;;5093665;28;19947;-76
2022/04/07 11:34:39;;;;;;;;;;;10.30;99.90;;;;;;5094316;28;19918;-76
2022/04/07 11:37:09;;;;;;;;;;;10.30;99.90;;;;;;5095523;28;19911;-77
2022/04/07 11:39:38;;;;;;;;;;;10.30;99.90;;;;;;5094918;28;19994;-76
2022/04/07 11:42:03;;;;;;;;;;;10.20;99.90;;;;;;5094699;28;19908;-77
2022/04/07 11:44:29;;;;;;;;;;;10.10;99.90;;;;;;5092810;28;19919;-77
2022/04/07 11:46:59;;;;;;;;;;;10.10;99.90;;;;;;5094727;28;20371;-78
2022/04/07 11:49:25;;;;;;;;;;;10.30;99.90;;;;;;5093841;28;19908;-78
2022/04/07 11:51:51;;;;;;;;;;;10.40;99.90;;;;;;5094770;28;20276;-78
2022/04/07 11:54:17;;;;;;;;;;;10.40;99.90;;;;;;5094203;28;19912;-78
2022/04/07 11:56:42;;;;;;;;;;;10.40;99.90;;;;;;5094603;28;20356;-78
2022/04/07 11:59:09;;;;;;;;;;;10.40;99.90;;;;;;5094491;28;19909;-78
2022/04/07 12:01:39;;;;;;;;;;;10.30;99.90;;;;;;5094073;28;19942;-79
2022/04/07 12:04:05;;;;;;;;;;;10.50;99.90;;;;;;5101039;28;19908;-79
2022/04/07 12:06:33;;;;;;;;;;;10.60;99.90;;;;;;5095985;28;20401;-79
2022/04/07 12:08:58;;;;;;;;;;;10.60;99.90;;;;;;5093237;28;19920;-79
2022/04/07 12:11:25;;;;;;;;;;;10.70;99.90;;;;;;5094173;28;19965;-79
2022/04/07 12:13:52;;;;;;;;;;;10.80;99.90;;;;;;5094178;28;19961;-79
2022/04/07 12:16:18;;;;;;;;;;;10.80;99.90;;;;;;5093662;28;19908;-78
2022/04/07 12:18:59;;;;;;;;;;;10.90;99.90;;;;;;5093829;28;20353;-78
2022/04/07 12:21:25;;;;;;;;;;;10.90;99.90;;;;;;5093104;28;19953;-79
2022/04/07 12:24:13;;;;;;;;;;;10.90;99.90;;;;;;5094891;28;19915;-78
2022/04/07 12:26:42;;;;;;;;;;;10.90;99.90;;;;;;5099482;28;19908;-79
2022/04/07 12:29:08;;;;;;;;;;;11.10;99.90;;;;;;5094355;28;19908;-79
2022/04/07 12:31:33;;;;;;;;;;;11.20;99.90;;;;;;5092134;28;20353;-79
2022/04/07 12:34:11;;;;;;;;;;;11.10;99.90;;;;;;5094078;28;19923;-80
2022/04/07 12:36:40;;;;;;;;;;;11.10;99.90;;;;;;5093651;28;19999;-80
2022/04/07 12:39:08;;;;;;;;;;;11.00;99.90;;;;;;5093833;28;19908;-80
2022/04/07 12:41:35;;;;;;;;;;;11.00;99.90;;;;;;5093140;28;20381;-79
2022/04/07 12:44:00;;;;;;;;;;;11.00;99.90;;;;;;5094197;28;19908;-80
2022/04/07 12:46:41;;;;;;;;;;;11.30;99.90;;;;;;5093102;28;20273;-80
2022/04/07 12:49:07;;;;;;;;;;;11.60;99.90;;;;;;5093713;28;19908;-80
2022/04/07 12:51:33;;;;;;;;;;;11.90;99.90;;;;;;5092841;28;19995;-80
2022/04/07 12:54:10;;;;;;;;;;;12.00;99.90;;;;;;5093240;28;19977;-80
2022/04/07 12:56:37;;;;;;;;;;;11.80;99.90;;;;;;5092903;28;20304;-80
2022/04/07 12:59:14;;;;;;;;;;;11.90;99.90;;;;;;5093686;28;20277;-80
2022/04/07 13:01:40;;;;;;;;;;;12.10;99.90;;;;;;5092946;28;20345;-80
2022/04/07 13:04:08;;;;;;;;;;;12.00;99.90;;;;;;5092553;28;20361;-79
2022/04/07 13:06:34;;;;;;;;;;;11.90;99.90;;;;;;5092948;28;20471;-80
2022/04/07 13:08:59;;;;;;;;;;;11.80;99.90;;;;;;5093133;28;19912;-80
2022/04/07 13:11:32;;;;;;;;;;;12.00;99.90;;;;;;5092149;28;20422;-79
2022/04/07 13:13:58;;;;;;;;;;;12.00;99.90;;;;;;5094827;28;19912;-80
2022/04/07 13:16:24;;;;;;;;;;;11.90;99.90;;;;;;5098507;28;20365;-80
2022/04/07 13:18:50;;;;;;;;;;;11.90;99.90;;;;;;5092660;28;19966;-78
2022/04/07 13:21:16;;;;;;;;;;;11.70;99.90;;;;;;5099111;28;19908;-78
2022/04/07 13:23:42;;;;;;;;;;;11.50;99.90;;;;;;5102814;28;19947;-80
2022/04/07 13:26:07;;;;;;;;;;;11.30;99.90;;;;;;5092418;28;19944;-81
2022/04/07 13:28:33;;;;;;;;;;;11.00;99.90;;;;;;5090427;28;20148;-80
2022/04/07 13:30:59;;;;;;;;;;;10.90;99.90;;;;;;5092236;28;19912;-80
2022/04/07 13:33:24;;;;;;;;;;;10.90;99.90;;;;;;5091823;28;19951;-79
2022/04/07 13:35:51;;;;;;;;;;;11.00;99.90;;;;;;5092011;28;19908;-79
2022/04/07 13:38:19;;;;;;;;;;;11.00;99.90;;;;;;5092124;28;19909;-78
2022/04/07 13:40:47;;;;;;;;;;;11.00;99.90;;;;;;5091283;28;19908;-81
2022/04/07 13:43:13;;;;;;;;;;;11.10;99.90;;;;;;5090676;28;19908;-80
2022/04/07 13:45:39;;;;;;;;;;;11.20;99.90;;;;;;5091783;28;19958;-80
2022/04/07 13:48:05;;;;;;;;;;;11.10;99.90;;;;;;5092150;28;19908;-80
2022/04/07 13:50:30;;;;;;;;;;;11.30;99.90;;;;;;5090209;28;20015;-79
2022/04/07 13:52:57;;;;;;;;;;;11.30;99.90;;;;;;5091862;28;19934;-79
2022/04/07 13:55:23;;;;;;;;;;;11.40;99.90;;;;;;5091738;28;19957;-80
2022/04/07 13:57:48;;;;;;;;;;;11.50;99.90;;;;;;5092158;28;19916;-82
2022/04/07 14:00:14;;;;;;;;;;;11.50;99.90;;;;;;5090853;28;19908;-80
2022/04/07 14:02:40;;;;;;;;;;;11.60;99.90;;;;;;5089982;28;19927;-82
2022/04/07 14:05:06;;;;;;;;;;;11.80;99.90;;;;;;5090552;28;19908;-81
2022/04/07 14:07:31;;;;;;;;;;;11.90;99.90;;;;;;5093600;28;20284;-81
2022/04/07 14:09:57;;;;;;;;;;;12.20;99.90;;;;;;5095937;28;19914;-80
2022/04/07 14:12:23;;;;;;;;;;;12.10;99.90;;;;;;5095693;28;19912;-81
2022/04/07 14:14:48;;;;;;;;;;;12.10;99.90;;;;;;5095916;28;19916;-80
2022/04/07 14:17:14;;;;;;;;;;;12.00;99.90;;;;;;5095995;28;19908;-81
2022/04/07 14:19:39;;;;;;;;;;;11.90;99.90;;;;;;5094876;28;19908;-80
2022/04/07 14:22:07;;;;;;;;;;;11.70;99.90;;;;;;5095703;28;19912;-80
2022/04/07 14:24:33;;;;;;;;;;;11.30;99.90;;;;;;5095194;28;19912;-81